sensor_id;sensor_type;location;lat;lon;timestamp;pressure;altitude;pressure_sealevel;temperature;humidity
44138;BME280;29800;55.942;37.314;2022-08-25T00:02:01;100585.53;;;18.52;62.38
44138;BME280;29800;55.942;37.314;2022-08-25T00:04:28;100584.41;;;18.48;62.17
44138;BME280;29800;55.942;37.314;2022-08-25T00:06:54;100586.38;;;18.47;62.72
44138;BME280;29800;55.942;37.314;2022-08-25T00:09:23;100583.31;;;18.49;62.27
44138;BME280;29800;55.942;37.314;2022-08-25T00:11:49;100587.50;;;18.46;62.35
44138;BME280;29800;55.942;37.314;2022-08-25T00:14:22;100586.38;;;18.47;62.58
44138;BME280;29800;55.942;37.314;2022-08-25T00:16:49;100585.28;;;18.43;62.46
44138;BME280;29800;55.942;37.314;2022-08-25T00:19:19;100579.75;;;18.43;nan
44138;BME280;29800;55.942;37.314;2022-08-25T00:21:46;100584.72;;;18.41;62.62
44138;BME280;29800;55.942;37.314;2022-08-25T00:24:13;100585.84;;;18.40;62.77
44138;BME280;29800;55.942;37.314;2022-08-25T00:26:42;100584.19;;;18.39;63.06
44138;BME280;29800;55.942;37.314;2022-08-25T00:29:10;100585.59;;;18.36;62.92
44138;BME280;29800;55.942;37.314;2022-08-25T00:31:37;100582.25;;;18.34;62.83
44138;BME280;29800;55.942;37.314;2022-08-25T00:34:06;100580.03;;;18.31;62.92
44138;BME280;29800;55.942;37.314;2022-08-25T00:36:33;100576.44;;;18.31;62.65
44138;BME280;29800;55.942;37.314;2022-08-25T00:38:59;100573.94;;;18.29;62.74
44138;BME280;29800;55.942;37.314;2022-08-25T00:41:27;100573.13;;;18.29;62.95
44138;BME280;29800;55.942;37.314;2022-08-25T00:43:59;100576.44;;;18.31;62.97
44138;BME280;29800;55.942;37.314;2022-08-25T00:46:32;100574.78;;;18.30;63.16
44138;BME280;29800;55.942;37.314;2022-08-25T00:49:04;100576.19;;;18.27;63.08
44138;BME280;29800;55.942;37.314;2022-08-25T00:51:43;100563.69;;;18.30;63.11
44138;BME280;29800;55.942;37.314;2022-08-25T00:54:16;100574.50;;;18.26;62.71
44138;BME280;29800;55.942;37.314;2022-08-25T00:56:43;100577.03;;;18.23;62.77
44138;BME280;29800;55.942;37.314;2022-08-25T00:59:10;100582.03;;;18.21;62.93
44138;BME280;29800;55.942;37.314;2022-08-25T01:01:36;100564.56;;;18.20;62.79
44138;BME280;29800;55.942;37.314;2022-08-25T01:04:02;100575.09;;;18.18;62.92
44138;BME280;29800;55.942;37.314;2022-08-25T01:06:32;100574.81;;;18.19;63.10
44138;BME280;29800;55.942;37.314;2022-08-25T01:09:00;100573.16;;;18.18;63.21
44138;BME280;29800;55.942;37.314;2022-08-25T01:11:26;100573.72;;;18.15;63.00
44138;BME280;29800;55.942;37.314;2022-08-25T01:13:54;100569.81;;;18.16;63.26
44138;BME280;29800;55.942;37.314;2022-08-25T01:16:22;100570.94;;;18.15;63.15
44138;BME280;29800;55.942;37.314;2022-08-25T01:18:56;100575.09;;;18.18;63.33
44138;BME280;29800;55.942;37.314;2022-08-25T01:21:25;100562.38;;;18.17;63.28
44138;BME280;29800;55.942;37.314;2022-08-25T01:23:54;100564.56;;;18.15;63.13
44138;BME280;29800;55.942;37.314;2022-08-25T01:26:25;100570.94;;;18.15;63.42
44138;BME280;29800;55.942;37.314;2022-08-25T01:28:52;100565.69;;;18.14;63.32
44138;BME280;29800;55.942;37.314;2022-08-25T01:31:38;100568.19;;;18.15;63.07
44138;BME280;29800;55.942;37.314;2022-08-25T01:34:05;100580.38;;;18.14;63.03
44138;BME280;29800;55.942;37.314;2022-08-25T01:36:33;100570.69;;;18.12;63.25
44138;BME280;29800;55.942;37.314;2022-08-25T01:39:01;100571.78;;;18.11;63.20
44138;BME280;29800;55.942;37.314;2022-08-25T01:44:00;100573.16;;;18.08;63.36
44138;BME280;29800;55.942;37.314;2022-08-25T01:46:26;100572.63;;;18.06;63.34
44138;BME280;29800;55.942;37.314;2022-08-25T01:48:52;100572.38;;;18.03;63.47
44138;BME280;29800;55.942;37.314;2022-08-25T01:51:23;100573.19;;;18.03;63.47
44138;BME280;29800;55.942;37.314;2022-08-25T01:53:50;100574.00;;;17.98;63.64
44138;BME280;29800;55.942;37.314;2022-08-25T01:56:16;100580.97;;;17.96;63.78
44138;BME280;29800;55.942;37.314;2022-08-25T01:58:47;100575.16;;;17.97;64.28
44138;BME280;29800;55.942;37.314;2022-08-25T02:01:19;100572.09;;;17.94;64.21
44138;BME280;29800;55.942;37.314;2022-08-25T02:03:48;100572.66;;;17.91;64.09
44138;BME280;29800;55.942;37.314;2022-08-25T02:06:19;100578.47;;;17.89;64.16
44138;BME280;29800;55.942;37.314;2022-08-25T02:08:50;100576.53;;;17.90;64.34
44138;BME280;29800;55.942;37.314;2022-08-25T02:11:17;100579.28;;;17.85;64.15
44138;BME280;29800;55.942;37.314;2022-08-25T02:13:43;100574.84;;;17.83;64.23
44138;BME280;29800;55.942;37.314;2022-08-25T02:16:15;100582.59;;;17.87;64.40
44138;BME280;29800;55.942;37.314;2022-08-25T02:18:43;100577.59;;;17.83;64.09
44138;BME280;29800;55.942;37.314;2022-08-25T02:21:11;100575.97;;;17.82;64.56
44138;BME280;29800;55.942;37.314;2022-08-25T02:23:37;100574.28;;;17.81;64.55
44138;BME280;29800;55.942;37.314;2022-08-25T02:26:03;100578.16;;;17.80;64.58
44138;BME280;29800;55.942;37.314;2022-08-25T02:28:30;100581.19;;;17.79;64.55
44138;BME280;29800;55.942;37.314;2022-08-25T02:30:56;100580.38;;;17.78;64.67
44138;BME280;29800;55.942;37.314;2022-08-25T02:33:22;100578.75;;;17.77;64.79
44138;BME280;29800;55.942;37.314;2022-08-25T02:35:48;100575.41;;;17.75;64.67
44138;BME280;29800;55.942;37.314;2022-08-25T02:38:14;100579.28;;;17.74;64.71
44138;BME280;29800;55.942;37.314;2022-08-25T02:40:40;100577.63;;;17.73;64.46
44138;BME280;29800;55.942;37.314;2022-08-25T02:43:06;100572.09;;;17.73;64.33
44138;BME280;29800;55.942;37.314;2022-08-25T02:45:32;100570.41;;;17.72;64.27
44138;BME280;29800;55.942;37.314;2022-08-25T02:47:59;100580.66;;;17.72;64.38
44138;BME280;29800;55.942;37.314;2022-08-25T02:50:25;100569.31;;;17.73;64.33
44138;BME280;29800;55.942;37.314;2022-08-25T02:52:51;100566.53;;;17.73;64.26
44138;BME280;29800;55.942;37.314;2022-08-25T02:55:18;100568.22;;;17.74;64.45
44138;BME280;29800;55.942;37.314;2022-08-25T02:57:44;100566.28;;;17.75;64.44
44138;BME280;29800;55.942;37.314;2022-08-25T03:00:11;100575.97;;;17.77;64.41
44138;BME280;29800;55.942;37.314;2022-08-25T03:02:38;100563.78;;;17.78;64.56
44138;BME280;29800;55.942;37.314;2022-08-25T03:05:07;100565.97;;;17.81;64.90
44138;BME280;29800;55.942;37.314;2022-08-25T03:07:34;100564.31;;;17.80;64.87
44138;BME280;29800;55.942;37.314;2022-08-25T03:10:10;100563.47;;;17.85;64.92
44138;BME280;29800;55.942;37.314;2022-08-25T03:12:37;100565.97;;;17.87;64.48
44138;BME280;29800;55.942;37.314;2022-08-25T03:15:03;100564.91;;;17.88;64.51
44138;BME280;29800;55.942;37.314;2022-08-25T03:17:29;100559.38;;;17.88;64.21
44138;BME280;29800;55.942;37.314;2022-08-25T03:19:56;100562.97;;;17.88;64.09
44138;BME280;29800;55.942;37.314;2022-08-25T03:22:22;100565.44;;;17.90;63.97
44138;BME280;29800;55.942;37.314;2022-08-25T03:24:48;100561.59;;;17.91;63.61
44138;BME280;29800;55.942;37.314;2022-08-25T03:27:14;100571.25;;;17.93;64.29
44138;BME280;29800;55.942;37.314;2022-08-25T03:29:40;100568.22;;;17.95;64.31
44138;BME280;29800;55.942;37.314;2022-08-25T03:32:08;100562.13;;;17.98;64.20
44138;BME280;29800;55.942;37.314;2022-08-25T03:34:34;100564.88;;;17.98;63.93
44138;BME280;29800;55.942;37.314;2022-08-25T03:37:00;100552.72;;;17.99;64.06
44138;BME280;29800;55.942;37.314;2022-08-25T03:39:27;100555.47;;;18.04;64.23
44138;BME280;29800;55.942;37.314;2022-08-25T03:41:53;100555.72;;;18.08;63.99
44138;BME280;29800;55.942;37.314;2022-08-25T03:44:21;100555.16;;;18.11;63.68
44138;BME280;29800;55.942;37.314;2022-08-25T03:46:49;100554.59;;;18.14;63.55
44138;BME280;29800;55.942;37.314;2022-08-25T03:49:19;100558.19;;;18.19;63.55
44138;BME280;29800;55.942;37.314;2022-08-25T03:51:52;100556.25;;;18.25;63.22
44138;BME280;29800;55.942;37.314;2022-08-25T03:54:22;100550.44;;;18.27;63.23
44138;BME280;29800;55.942;37.314;2022-08-25T03:56:48;100547.63;;;18.32;63.06
44138;BME280;29800;55.942;37.314;2022-08-25T03:59:14;100549.25;;;18.38;63.09
44138;BME280;29800;55.942;37.314;2022-08-25T04:01:42;100548.97;;;18.45;62.70
44138;BME280;29800;55.942;37.314;2022-08-25T04:04:10;100544.22;;;18.50;62.65
44138;BME280;29800;55.942;37.314;2022-08-25T04:06:38;100543.38;;;18.55;62.47
44138;BME280;29800;55.942;37.314;2022-08-25T04:09:04;100546.13;;;18.60;62.49
44138;BME280;29800;55.942;37.314;2022-08-25T04:11:30;100548.59;;;18.67;62.51
44138;BME280;29800;55.942;37.314;2022-08-25T04:13:57;100546.59;;;18.72;62.51
44138;BME280;29800;55.942;37.314;2022-08-25T04:16:29;100541.59;;;18.80;62.51
44138;BME280;29800;55.942;37.314;2022-08-25T04:18:58;100546.56;;;18.88;62.14
44138;BME280;29800;55.942;37.314;2022-08-25T04:21:25;100535.16;;;18.95;62.32
44138;BME280;29800;55.942;37.314;2022-08-25T04:23:52;100534.25;;;19.04;62.15
44138;BME280;29800;55.942;37.314;2022-08-25T04:26:25;100535.03;;;19.15;62.06
44138;BME280;29800;55.942;37.314;2022-08-25T04:28:52;100528.31;;;19.21;62.20
44138;BME280;29800;55.942;37.314;2022-08-25T04:31:20;100522.13;;;19.29;61.89
44138;BME280;29800;55.942;37.314;2022-08-25T04:33:49;100526.50;;;19.41;62.31
44138;BME280;29800;55.942;37.314;2022-08-25T04:36:17;100524.75;;;19.50;62.74
44138;BME280;29800;55.942;37.314;2022-08-25T04:38:44;100522.72;;;19.61;63.40
44138;BME280;29800;55.942;37.314;2022-08-25T04:41:13;100520.66;;;19.72;62.92
44138;BME280;29800;55.942;37.314;2022-08-25T04:43:40;100521.44;;;19.82;62.75
44138;BME280;29800;55.942;37.314;2022-08-25T04:46:13;100521.84;;;19.95;63.13
44138;BME280;29800;55.942;37.314;2022-08-25T04:48:40;100517.56;;;20.08;63.33
44138;BME280;29800;55.942;37.314;2022-08-25T04:51:08;100520.72;;;20.20;63.33
44138;BME280;29800;55.942;37.314;2022-08-25T04:53:35;100512.81;;;20.32;63.41
44138;BME280;29800;55.942;37.314;2022-08-25T04:56:06;100512.09;;;20.46;63.38
44138;BME280;29800;55.942;37.314;2022-08-25T04:58:32;100505.78;;;20.59;63.41
44138;BME280;29800;55.942;37.314;2022-08-25T05:01:03;100508.72;;;20.73;62.35
44138;BME280;29800;55.942;37.314;2022-08-25T05:03:30;100507.66;;;20.88;62.01
44138;BME280;29800;55.942;37.314;2022-08-25T05:05:56;100506.31;;;21.04;63.14
44138;BME280;29800;55.942;37.314;2022-08-25T05:08:22;100502.22;;;21.16;61.94
44138;BME280;29800;55.942;37.314;2022-08-25T05:10:48;100504.75;;;21.31;60.13
44138;BME280;29800;55.942;37.314;2022-08-25T05:13:15;100501.19;;;21.44;59.81
44138;BME280;29800;55.942;37.314;2022-08-25T05:15:41;100513.22;;;21.59;58.43
44138;BME280;29800;55.942;37.314;2022-08-25T05:18:16;100502.75;;;21.83;58.61
44138;BME280;29800;55.942;37.314;2022-08-25T05:20:43;100506.59;;;21.88;58.47
44138;BME280;29800;55.942;37.314;2022-08-25T05:23:09;100501.63;;;21.98;58.81
44138;BME280;29800;55.942;37.314;2022-08-25T05:25:35;100501.47;;;22.09;58.92
44138;BME280;29800;55.942;37.314;2022-08-25T05:28:02;100500.72;;;22.17;56.56
44138;BME280;29800;55.942;37.314;2022-08-25T05:30:28;100499.09;;;22.30;56.87
44138;BME280;29800;55.942;37.314;2022-08-25T05:32:54;100499.41;;;22.42;54.80
44138;BME280;29800;55.942;37.314;2022-08-25T05:35:21;100493.59;;;22.52;54.66
44138;BME280;29800;55.942;37.314;2022-08-25T05:37:47;100488.31;;;22.65;53.80
44138;BME280;29800;55.942;37.314;2022-08-25T05:40:13;100490.56;;;22.76;53.66
44138;BME280;29800;55.942;37.314;2022-08-25T05:42:39;100493.91;;;22.87;53.52
44138;BME280;29800;55.942;37.314;2022-08-25T05:45:06;100498.66;;;23.01;52.30
44138;BME280;29800;55.942;37.314;2022-08-25T05:47:33;100489.75;;;23.12;51.82
44138;BME280;29800;55.942;37.314;2022-08-25T05:49:59;100486.38;;;23.24;52.30
44138;BME280;29800;55.942;37.314;2022-08-25T05:52:26;100481.56;;;23.39;51.57
44138;BME280;29800;55.942;37.314;2022-08-25T05:54:52;100483.75;;;23.51;51.25
44138;BME280;29800;55.942;37.314;2022-08-25T05:57:19;100484.31;;;23.61;52.67
44138;BME280;29800;55.942;37.314;2022-08-25T05:59:45;100471.75;;;23.81;50.46
44138;BME280;29800;55.942;37.314;2022-08-25T06:02:11;100478.28;;;23.99;50.94
44138;BME280;29800;55.942;37.314;2022-08-25T06:05:10;100484.13;;;24.29;51.21
44138;BME280;29800;55.942;37.314;2022-08-25T06:07:37;100476.28;;;24.40;48.16
44138;BME280;29800;55.942;37.314;2022-08-25T06:10:05;100481.56;;;24.50;47.25
44138;BME280;29800;55.942;37.314;2022-08-25T06:12:32;100478.84;;;24.68;48.61
44138;BME280;29800;55.942;37.314;2022-08-25T06:14:59;100472.56;;;24.80;46.22
44138;BME280;29800;55.942;37.314;2022-08-25T06:17:25;100478.81;;;24.94;46.18
44138;BME280;29800;55.942;37.314;2022-08-25T06:19:52;100483.28;;;25.12;45.59
44138;BME280;29800;55.942;37.314;2022-08-25T06:22:18;100481.13;;;25.44;45.32
44138;BME280;29800;55.942;37.314;2022-08-25T06:24:44;100479.91;;;25.63;44.86
44138;BME280;29800;55.942;37.314;2022-08-25T06:27:10;100480.47;;;25.95;44.68
44138;BME280;29800;55.942;37.314;2022-08-25T06:29:36;100487.06;;;26.08;44.21
44138;BME280;29800;55.942;37.314;2022-08-25T06:32:02;100472.31;;;26.19;43.22
44138;BME280;29800;55.942;37.314;2022-08-25T06:34:29;100474.69;;;26.38;43.66
44138;BME280;29800;55.942;37.314;2022-08-25T06:36:55;100475.69;;;26.64;43.22
44138;BME280;29800;55.942;37.314;2022-08-25T06:39:21;100477.88;;;26.79;41.45
44138;BME280;29800;55.942;37.314;2022-08-25T06:41:55;100468.72;;;26.91;41.69
44138;BME280;29800;55.942;37.314;2022-08-25T06:44:24;100465.19;;;26.94;40.77
44138;BME280;29800;55.942;37.314;2022-08-25T06:46:52;100467.81;;;26.99;41.39
44138;BME280;29800;55.942;37.314;2022-08-25T06:49:18;100459.34;;;27.20;40.48
44138;BME280;29800;55.942;37.314;2022-08-25T06:51:45;100458.31;;;27.25;40.11
44138;BME280;29800;55.942;37.314;2022-08-25T06:54:11;100452.78;;;27.49;39.86
44138;BME280;29800;55.942;37.314;2022-08-25T06:56:39;100453.66;;;27.62;38.67
44138;BME280;29800;55.942;37.314;2022-08-25T06:59:06;100451.47;;;27.93;38.25
44138;BME280;29800;55.942;37.314;2022-08-25T07:01:33;100460.97;;;28.00;40.05
44138;BME280;29800;55.942;37.314;2022-08-25T07:04:03;100455.38;;;28.13;38.25
44138;BME280;29800;55.942;37.314;2022-08-25T07:06:32;100445.25;;;28.36;37.39
44138;BME280;29800;55.942;37.314;2022-08-25T07:09:01;100449.47;;;28.67;37.49
44138;BME280;29800;55.942;37.314;2022-08-25T07:11:28;100448.81;;;28.86;37.19
44138;BME280;29800;55.942;37.314;2022-08-25T07:13:54;100447.69;;;29.03;36.19
44138;BME280;29800;55.942;37.314;2022-08-25T07:16:20;100445.56;;;29.12;35.54
44138;BME280;29800;55.942;37.314;2022-08-25T07:18:47;100446.81;;;29.27;36.52
44138;BME280;29800;55.942;37.314;2022-08-25T07:21:14;100447.19;;;29.58;35.44
44138;BME280;29800;55.942;37.314;2022-08-25T07:23:40;100442.31;;;29.70;34.46
44138;BME280;29800;55.942;37.314;2022-08-25T07:26:13;100446.06;;;29.91;32.46
44138;BME280;29800;55.942;37.314;2022-08-25T07:28:40;100440.03;;;30.08;32.32
44138;BME280;29800;55.942;37.314;2022-08-25T07:31:06;100441.84;;;30.16;32.85
44138;BME280;29800;55.942;37.314;2022-08-25T07:33:32;100439.91;;;30.52;32.80
44138;BME280;29800;55.942;37.314;2022-08-25T07:35:58;100437.22;;;30.59;32.54
44138;BME280;29800;55.942;37.314;2022-08-25T07:38:25;100435.16;;;30.76;31.17
44138;BME280;29800;55.942;37.314;2022-08-25T07:40:51;100433.25;;;31.00;32.17
44138;BME280;29800;55.942;37.314;2022-08-25T07:43:21;100439.34;;;31.21;32.14
44138;BME280;29800;55.942;37.314;2022-08-25T07:45:47;100432.84;;;31.40;30.20
44138;BME280;29800;55.942;37.314;2022-08-25T07:48:14;100426.75;;;31.61;30.27
44138;BME280;29800;55.942;37.314;2022-08-25T07:50:42;100433.31;;;31.88;31.34
44138;BME280;29800;55.942;37.314;2022-08-25T07:53:10;100433.41;;;31.96;30.54
44138;BME280;29800;55.942;37.314;2022-08-25T07:55:37;100427.22;;;32.10;30.54
44138;BME280;29800;55.942;37.314;2022-08-25T07:58:08;100431.53;;;32.30;30.04
44138;BME280;29800;55.942;37.314;2022-08-25T08:00:36;100424.78;;;32.38;28.71
44138;BME280;29800;55.942;37.314;2022-08-25T08:03:05;100426.91;;;32.45;29.31
44138;BME280;29800;55.942;37.314;2022-08-25T08:05:32;100417.56;;;32.71;29.21
44138;BME280;29800;55.942;37.314;2022-08-25T08:07:59;100414.31;;;32.69;29.58
44138;BME280;29800;55.942;37.314;2022-08-25T08:10:25;100411.84;;;32.98;29.07
44138;BME280;29800;55.942;37.314;2022-08-25T08:12:52;100408.63;;;33.00;28.02
44138;BME280;29800;55.942;37.314;2022-08-25T08:15:19;100405.47;;;33.08;28.65
44138;BME280;29800;55.942;37.314;2022-08-25T08:17:45;100401.88;;;33.11;27.95
44138;BME280;29800;55.942;37.314;2022-08-25T08:20:12;100397.22;;;33.30;26.40
44138;BME280;29800;55.942;37.314;2022-08-25T08:22:40;100398.84;;;33.27;26.70
44138;BME280;29800;55.942;37.314;2022-08-25T08:25:09;100399.84;;;33.49;27.29
44138;BME280;29800;55.942;37.314;2022-08-25T08:27:36;100403.59;;;33.61;26.37
44138;BME280;29800;55.942;37.314;2022-08-25T08:30:04;100402.78;;;33.60;26.52
44138;BME280;29800;55.942;37.314;2022-08-25T08:32:30;100400.50;;;33.73;25.71
44138;BME280;29800;55.942;37.314;2022-08-25T08:34:57;100398.53;;;33.84;26.16
44138;BME280;29800;55.942;37.314;2022-08-25T08:37:23;100394.59;;;33.96;25.76
44138;BME280;29800;55.942;37.314;2022-08-25T08:39:49;100388.47;;;33.94;24.85
44138;BME280;29800;55.942;37.314;2022-08-25T08:53:18;100384.88;;;34.67;25.07
44138;BME280;29800;55.942;37.314;2022-08-25T08:55:49;100388.50;;;34.64;23.04
44138;BME280;29800;55.942;37.314;2022-08-25T08:58:21;100384.53;;;34.76;23.80
44138;BME280;29800;55.942;37.314;2022-08-25T09:00:51;100386.88;;;34.59;23.57
44138;BME280;29800;55.942;37.314;2022-08-25T09:03:34;100384.81;;;34.53;23.25
44138;BME280;29800;55.942;37.314;2022-08-25T09:06:32;100384.47;;;34.69;24.35
44138;BME280;29800;55.942;37.314;2022-08-25T09:09:04;100384.41;;;34.54;22.87
44138;BME280;29800;55.942;37.314;2022-08-25T09:14:18;100384.03;;;33.93;22.96
44138;BME280;29800;55.942;37.314;2022-08-25T09:17:36;100370.97;;;33.81;24.18
44138;BME280;29800;55.942;37.314;2022-08-25T09:20:10;100372.78;;;34.11;25.73
44138;BME280;29800;55.942;37.314;2022-08-25T09:26:06;100372.31;;;34.72;24.30
44138;BME280;29800;55.942;37.314;2022-08-25T09:31:22;100369.16;;;35.02;22.46
44138;BME280;29800;55.942;37.314;2022-08-25T09:33:52;100368.38;;;35.02;22.32
44138;BME280;29800;55.942;37.314;2022-08-25T09:36:20;100364.69;;;34.97;21.98
44138;BME280;29800;55.942;37.314;2022-08-25T09:38:46;100357.41;;;34.96;23.53
44138;BME280;29800;55.942;37.314;2022-08-25T09:41:16;100361.44;;;34.95;23.39
44138;BME280;29800;55.942;37.314;2022-08-25T09:43:50;100360.19;;;34.86;21.31
44138;BME280;29800;55.942;37.314;2022-08-25T09:46:25;100366.31;;;34.95;22.27
44138;BME280;29800;55.942;37.314;2022-08-25T09:48:56;100356.47;;;34.71;21.06
44138;BME280;29800;55.942;37.314;2022-08-25T09:51:34;100357.94;;;34.36;21.67
44138;BME280;29800;55.942;37.314;2022-08-25T09:59:27;100346.56;;;34.32;22.35
44138;BME280;29800;55.942;37.314;2022-08-25T10:01:56;100350.00;;;34.74;21.68
44138;BME280;29800;55.942;37.314;2022-08-25T10:04:28;100339.94;;;34.98;22.55
44138;BME280;29800;55.942;37.314;2022-08-25T10:06:57;100340.41;;;35.32;23.25
44138;BME280;29800;55.942;37.314;2022-08-25T10:09:40;100330.66;;;35.62;22.15
44138;BME280;29800;55.942;37.314;2022-08-25T10:12:18;100326.97;;;35.73;21.27
44138;BME280;29800;55.942;37.314;2022-08-25T10:14:46;100332.25;;;35.99;20.85
44138;BME280;29800;55.942;37.314;2022-08-25T10:17:33;100329.41;;;36.06;20.33
44138;BME280;29800;55.942;37.314;2022-08-25T10:20:23;100326.91;;;36.19;21.48
44138;BME280;29800;55.942;37.314;2022-08-25T10:22:50;100324.47;;;36.11;19.92
44138;BME280;29800;55.942;37.314;2022-08-25T10:25:27;100320.47;;;35.94;19.49
44138;BME280;29800;55.942;37.314;2022-08-25T10:36:00;100325.13;;;34.42;21.09
44138;BME280;29800;55.942;37.314;2022-08-25T10:38:43;100323.66;;;34.00;21.68
44138;BME280;29800;55.942;37.314;2022-08-25T10:55:51;100292.13;;;34.19;22.08
44138;BME280;29800;55.942;37.314;2022-08-25T11:01:34;100302.94;;;33.96;23.38
44138;BME280;29800;55.942;37.314;2022-08-25T11:04:17;100289.31;;;33.60;22.25
44138;BME280;29800;55.942;37.314;2022-08-25T11:06:53;100286.22;;;33.28;22.14
44138;BME280;29800;55.942;37.314;2022-08-25T11:09:27;100291.56;;;32.99;23.94
44138;BME280;29800;55.942;37.314;2022-08-25T11:17:15;100283.88;;;32.28;24.04
44138;BME280;29800;55.942;37.314;2022-08-25T11:19:47;100279.81;;;31.99;24.63
44138;BME280;29800;55.942;37.314;2022-08-25T11:22:21;100277.06;;;31.76;24.81
44138;BME280;29800;55.942;37.314;2022-08-25T11:30:36;100275.88;;;31.04;25.86
44138;BME280;29800;55.942;37.314;2022-08-25T11:33:03;100270.53;;;30.99;25.38
44138;BME280;29800;55.942;37.314;2022-08-25T11:35:31;100271.47;;;31.29;26.33
44138;BME280;29800;55.942;37.314;2022-08-25T11:48:53;100246.56;;;33.35;23.04
44138;BME280;29800;55.942;37.314;2022-08-25T11:57:23;100234.16;;;33.58;23.12
44138;BME280;29800;55.942;37.314;2022-08-25T12:02:49;100235.91;;;33.73;23.10
44138;BME280;29800;55.942;37.314;2022-08-25T12:11:05;100228.28;;;33.88;23.37
44138;BME280;29800;55.942;37.314;2022-08-25T12:13:47;100230.34;;;33.91;22.89
44138;BME280;29800;55.942;37.314;2022-08-25T12:16:43;100222.25;;;33.97;23.46
44138;BME280;29800;55.942;37.314;2022-08-25T12:35:58;100204.97;;;34.41;21.51
44138;BME280;29800;55.942;37.314;2022-08-25T12:41:03;100204.53;;;34.29;22.83
44138;BME280;29800;55.942;37.314;2022-08-25T12:43:34;100204.09;;;34.19;22.28
44138;BME280;29800;55.942;37.314;2022-08-25T12:52:00;100197.09;;;34.02;21.76
44138;BME280;29800;55.942;37.314;2022-08-25T12:57:21;100205.41;;;33.63;22.14
44138;BME280;29800;55.942;37.314;2022-08-25T12:59:54;100197.16;;;33.40;22.70
44138;BME280;29800;55.942;37.314;2022-08-25T13:05:00;100191.34;;;33.18;22.70
44138;BME280;29800;55.942;37.314;2022-08-25T13:07:45;100196.47;;;33.05;23.11
44138;BME280;29800;55.942;37.314;2022-08-25T13:15:43;100189.38;;;32.81;24.32
44138;BME280;29800;55.942;37.314;2022-08-25T13:18:25;100183.84;;;32.95;24.48
44138;BME280;29800;55.942;37.314;2022-08-25T13:21:14;100188.72;;;32.95;23.73
44138;BME280;29800;55.942;37.314;2022-08-25T13:23:43;100179.06;;;33.03;24.58
44138;BME280;29800;55.942;37.314;2022-08-25T13:26:16;100169.53;;;33.26;23.85
44138;BME280;29800;55.942;37.314;2022-08-25T13:28:52;100167.53;;;33.30;23.07
44138;BME280;29800;55.942;37.314;2022-08-25T13:31:20;100164.78;;;33.44;23.91
44138;BME280;29800;55.942;37.314;2022-08-25T13:33:59;100160.41;;;33.58;24.37
44138;BME280;29800;55.942;37.314;2022-08-25T13:36:29;100157.16;;;33.56;23.90
44138;BME280;29800;55.942;37.314;2022-08-25T13:39:22;100160.75;;;33.49;22.99
44138;BME280;29800;55.942;37.314;2022-08-25T13:41:51;100157.03;;;33.34;23.11
44138;BME280;29800;55.942;37.314;2022-08-25T13:44:20;100155.78;;;33.31;23.79
44138;BME280;29800;55.942;37.314;2022-08-25T13:47:04;100159.44;;;33.32;23.86
44138;BME280;29800;55.942;37.314;2022-08-25T13:49:31;100157.75;;;33.24;23.19
44138;BME280;29800;55.942;37.314;2022-08-25T13:51:57;100154.88;;;33.17;22.65
44138;BME280;29800;55.942;37.314;2022-08-25T13:54:28;100151.59;;;33.14;23.32
44138;BME280;29800;55.942;37.314;2022-08-25T13:57:11;100150.84;;;33.18;23.06
44138;BME280;29800;55.942;37.314;2022-08-25T13:59:40;100146.72;;;33.11;22.89
44138;BME280;29800;55.942;37.314;2022-08-25T14:02:11;100143.41;;;33.06;22.90
44138;BME280;29800;55.942;37.314;2022-08-25T14:07:22;100135.34;;;33.04;23.62
44138;BME280;29800;55.942;37.314;2022-08-25T14:09:56;100145.81;;;33.00;23.30
44138;BME280;29800;55.942;37.314;2022-08-25T14:12:46;100145.81;;;33.00;23.42
44138;BME280;29800;55.942;37.314;2022-08-25T14:17:44;100133.19;;;32.90;23.84
44138;BME280;29800;55.942;37.314;2022-08-25T14:20:21;100138.84;;;32.87;23.88
44138;BME280;29800;55.942;37.314;2022-08-25T14:22:54;100130.69;;;32.78;23.72
44138;BME280;29800;55.942;37.314;2022-08-25T14:25:21;100128.59;;;32.71;23.25
44138;BME280;29800;55.942;37.314;2022-08-25T14:27:59;100130.19;;;32.69;23.78
44138;BME280;29800;55.942;37.314;2022-08-25T14:30:26;100134.13;;;32.57;23.57
44138;BME280;29800;55.942;37.314;2022-08-25T14:32:52;100124.72;;;32.49;24.47
44138;BME280;29800;55.942;37.314;2022-08-25T14:35:18;100129.88;;;32.40;24.75
44138;BME280;29800;55.942;37.314;2022-08-25T14:37:44;100120.91;;;32.31;25.24
44138;BME280;29800;55.942;37.314;2022-08-25T14:40:11;100125.66;;;32.19;25.05
44138;BME280;29800;55.942;37.314;2022-08-25T14:42:40;100116.16;;;32.04;24.78
44138;BME280;29800;55.942;37.314;2022-08-25T14:45:06;100115.66;;;31.95;25.46
44138;BME280;29800;55.942;37.314;2022-08-25T14:47:33;100115.47;;;31.81;24.80
44138;BME280;29800;55.942;37.314;2022-08-25T14:50:00;100114.59;;;31.73;24.91
44138;BME280;29800;55.942;37.314;2022-08-25T14:52:28;100116.94;;;31.67;25.06
44138;BME280;29800;55.942;37.314;2022-08-25T14:54:57;100111.09;;;31.53;25.27
44138;BME280;29800;55.942;37.314;2022-08-25T14:57:24;100112.91;;;31.42;25.09
44138;BME280;29800;55.942;37.314;2022-08-25T14:59:51;100104.31;;;31.31;25.72
44138;BME280;29800;55.942;37.314;2022-08-25T15:02:18;100117.47;;;31.20;25.37
44138;BME280;29800;55.942;37.314;2022-08-25T15:04:51;100110.03;;;31.08;26.32